createdAt,value
2023-03-27T00:01:23.909Z,63.95
2023-03-27T00:03:53.467Z,65.10
2023-03-27T00:06:20.384Z,65.55
2023-03-27T00:08:51.084Z,66.64
2023-03-27T00:11:18.317Z,66.19
2023-03-27T00:13:50.337Z,67.19
2023-03-27T00:16:25.522Z,67.88
2023-03-27T00:18:55.208Z,66.90
2023-03-27T00:21:24.163Z,66.01
2023-03-27T00:23:50.839Z,66.25
2023-03-27T00:26:18.002Z,66.55
2023-03-27T00:28:47.960Z,67.61
2023-03-27T00:31:17.607Z,67.26
2023-03-27T00:33:46.624Z,67.00
2023-03-27T00:36:18.728Z,67.56
2023-03-27T00:38:45.957Z,68.04
2023-03-27T00:41:15.085Z,67.19
2023-03-27T00:43:45.689Z,68.26
2023-03-27T00:46:14.735Z,67.56
2023-03-27T00:48:41.407Z,67.79
2023-03-27T00:51:10.379Z,68.59
2023-03-27T00:53:37.201Z,68.30
2023-03-27T00:56:04.386Z,68.56
2023-03-27T00:58:39.558Z,69.05
2023-03-27T01:01:07.013Z,69.63
2023-03-27T01:03:33.702Z,70.53
2023-03-27T01:06:03.162Z,69.95
2023-03-27T01:08:30.411Z,69.91
2023-03-27T01:11:04.175Z,69.76
2023-03-27T01:13:30.900Z,69.79
2023-03-27T01:15:57.714Z,70.22
2023-03-27T01:18:30.654Z,69.35
2023-03-27T01:21:06.536Z,69.29
2023-03-27T01:23:59.833Z,69.22
2023-03-27T01:26:35.992Z,69.45
2023-03-27T01:29:18.107Z,70.54
2023-03-27T01:31:46.497Z,71.31
2023-03-27T01:34:13.131Z,72.48
2023-03-27T01:36:59.064Z,74.21
2023-03-27T01:39:33.977Z,74.91
2023-03-27T01:42:19.324Z,74.26
2023-03-27T01:44:48.098Z,74.48
2023-03-27T01:47:26.689Z,74.08
2023-03-27T01:49:57.138Z,77.14
2023-03-27T01:52:26.330Z,77.09
2023-03-27T01:54:58.885Z,78.23
2023-03-27T01:57:31.090Z,77.61
2023-03-27T02:00:19.402Z,78.25
2023-03-27T02:02:48.650Z,77.61
2023-03-27T02:05:20.419Z,78.84
2023-03-27T02:07:57.677Z,78.81
2023-03-27T02:10:30.032Z,78.81
2023-03-27T02:13:04.177Z,79.56
2023-03-27T02:15:33.245Z,79.62
2023-03-27T02:18:10.390Z,80.29
2023-03-27T02:20:46.550Z,79.80
2023-03-27T02:23:13.993Z,79.68
2023-03-27T02:25:44.568Z,79.75
2023-03-27T02:28:30.334Z,80.49
2023-03-27T02:31:05.693Z,79.95
2023-03-27T02:34:07.820Z,79.94
2023-03-27T02:36:37.491Z,79.61
2023-03-27T02:39:10.372Z,79.91
2023-03-27T02:41:39.294Z,80.23
2023-03-27T02:44:08.978Z,80.51
2023-03-27T02:46:51.402Z,80.79
2023-03-27T02:49:20.086Z,80.71
2023-03-27T02:51:53.492Z,80.61
2023-03-27T02:54:42.697Z,81.11
2023-03-27T02:57:16.704Z,80.60
2023-03-27T03:00:22.268Z,79.92
2023-03-27T03:03:28.902Z,79.80
2023-03-27T03:06:07.314Z,79.90
2023-03-27T03:08:40.549Z,79.94
2023-03-27T03:11:11.780Z,80.19
2023-03-27T03:13:43.312Z,79.30
2023-03-27T03:16:13.746Z,79.75
2023-03-27T03:18:40.474Z,79.74
2023-03-27T03:21:07.362Z,80.03
2023-03-27T03:23:34.098Z,79.91
2023-03-27T03:26:02.923Z,80.00
2023-03-27T03:28:41.608Z,79.91
2023-03-27T03:31:44.161Z,80.04
2023-03-27T03:34:12.319Z,78.78
2023-03-27T03:36:38.928Z,78.88
2023-03-27T03:39:05.801Z,78.33
2023-03-27T03:41:33.011Z,78.37
2023-03-27T03:44:01.228Z,78.08
2023-03-27T03:46:30.240Z,78.57
2023-03-27T03:48:59.577Z,78.19
2023-03-27T03:51:27.507Z,77.88
2023-03-27T03:53:54.228Z,77.57
2023-03-27T03:56:23.426Z,77.61
2023-03-27T03:58:51.395Z,77.04
2023-03-27T04:01:20.743Z,77.03
2023-03-27T04:03:54.367Z,76.26
2023-03-27T04:06:21.302Z,75.70
2023-03-27T04:08:51.416Z,75.20
2023-03-27T04:11:51.178Z,75.16
2023-03-27T04:14:40.609Z,75.57
2023-03-27T04:17:26.724Z,75.16
2023-03-27T04:20:00.370Z,75.13
2023-03-27T04:22:31.994Z,75.10
2023-03-27T04:24:58.639Z,74.58
2023-03-27T04:27:33.373Z,74.72
2023-03-27T04:30:10.779Z,74.56
2023-03-27T04:33:00.388Z,74.36
2023-03-27T04:36:06.385Z,74.55
2023-03-27T04:39:03.598Z,74.75
2023-03-27T04:41:32.689Z,74.65
2023-03-27T04:43:59.345Z,74.74
2023-03-27T04:46:28.330Z,75.42
2023-03-27T04:49:03.394Z,75.67
2023-03-27T04:51:49.817Z,75.82
2023-03-27T04:54:26.681Z,75.53
2023-03-27T04:56:55.815Z,76.19
2023-03-27T04:59:22.464Z,76.98
2023-03-27T05:02:09.429Z,76.97
2023-03-27T05:04:58.304Z,77.79
2023-03-27T05:07:34.299Z,77.87
2023-03-27T05:10:02.655Z,78.77
2023-03-27T05:12:29.544Z,78.73
2023-03-27T05:15:00.688Z,79.32
2023-03-27T05:17:40.874Z,79.45
2023-03-27T05:20:14.742Z,79.52
2023-03-27T05:22:44.284Z,79.75
2023-03-27T05:25:37.245Z,79.97
2023-03-27T05:28:09.625Z,80.57
2023-03-27T05:30:38.759Z,80.72
2023-03-27T05:33:20.680Z,80.44
2023-03-27T05:35:50.248Z,79.98
2023-03-27T05:38:21.978Z,80.09
2023-03-27T05:41:18.419Z,80.27
2023-03-27T05:43:49.507Z,79.90
2023-03-27T05:46:21.242Z,79.64
2023-03-27T05:49:04.600Z,79.43
2023-03-27T05:51:36.028Z,78.84
2023-03-27T05:54:08.225Z,78.54
2023-03-27T05:56:41.316Z,77.97
2023-03-27T05:59:08.044Z,77.76
2023-03-27T06:01:39.949Z,77.52
2023-03-27T06:04:09.331Z,77.19
2023-03-27T06:07:02.620Z,76.24
2023-03-27T06:09:33.236Z,76.02
2023-03-27T06:12:21.356Z,76.09
2023-03-27T06:14:51.858Z,76.26
2023-03-27T06:17:41.201Z,74.10
2023-03-27T06:20:15.709Z,74.40
2023-03-27T06:22:55.740Z,74.33
2023-03-27T06:25:33.509Z,73.48
2023-03-27T06:28:05.762Z,73.80
2023-03-27T06:30:39.038Z,72.85
2023-03-27T06:33:27.973Z,72.54
2023-03-27T06:36:03.156Z,72.06
2023-03-27T06:38:37.299Z,71.83
2023-03-27T06:41:08.023Z,72.26
2023-03-27T06:44:00.589Z,72.00
2023-03-27T06:47:05.861Z,72.74
2023-03-27T06:49:52.782Z,71.92
2023-03-27T06:52:23.046Z,71.51
2023-03-27T06:54:54.632Z,70.60
2023-03-27T06:57:24.565Z,70.54
2023-03-27T07:00:02.491Z,70.61
2023-03-27T07:02:56.548Z,70.52
2023-03-27T07:05:51.687Z,70.70
2023-03-27T07:08:23.407Z,69.57
2023-03-27T07:11:07.984Z,69.64
2023-03-27T07:13:43.951Z,69.32
2023-03-27T07:16:20.368Z,68.95
2023-03-27T07:18:59.447Z,68.77
2023-03-27T07:21:28.292Z,69.03
2023-03-27T07:24:00.571Z,69.86
2023-03-27T07:26:31.776Z,69.68
2023-03-27T07:29:03.336Z,69.25
2023-03-27T07:31:55.026Z,68.70
2023-03-27T07:34:21.868Z,69.08
2023-03-27T07:37:19.289Z,69.09
2023-03-27T07:40:14.655Z,68.82
2023-03-27T07:42:50.379Z,68.37
2023-03-27T07:45:21.339Z,68.49
2023-03-27T07:47:50.127Z,69.01
2023-03-27T07:50:17.970Z,69.15
2023-03-27T07:52:47.255Z,69.17
2023-03-27T07:55:16.208Z,69.40
2023-03-27T07:58:00.900Z,69.65
2023-03-27T08:00:31.268Z,69.74
2023-03-27T08:03:12.291Z,69.81
2023-03-27T08:05:43.939Z,70.16
2023-03-27T08:08:13.775Z,70.74
2023-03-27T08:10:54.805Z,71.51
2023-03-27T08:13:24.038Z,72.35
2023-03-27T08:16:01.643Z,73.00
2023-03-27T08:18:28.296Z,73.87
2023-03-27T08:20:58.444Z,74.17
2023-03-27T08:23:27.387Z,74.36
2023-03-27T08:26:22.846Z,74.96
2023-03-27T08:28:58.000Z,76.31
2023-03-27T08:31:29.320Z,76.58
2023-03-27T08:33:59.325Z,76.71
2023-03-27T08:36:32.074Z,78.02
2023-03-27T08:39:02.923Z,78.20
2023-03-27T08:41:42.508Z,78.66
2023-03-27T08:44:19.320Z,78.87
2023-03-27T08:46:53.369Z,79.98
2023-03-27T08:49:24.095Z,79.95
2023-03-27T08:52:15.690Z,80.67
2023-03-27T08:54:45.176Z,81.20
2023-03-27T08:57:23.291Z,81.13
2023-03-27T08:59:56.030Z,81.07
2023-03-27T09:02:34.038Z,81.18
2023-03-27T09:05:07.371Z,81.15
2023-03-27T09:07:56.930Z,80.63
2023-03-27T09:10:43.204Z,82.34
2023-03-27T09:13:31.686Z,84.75
2023-03-27T09:16:01.169Z,84.64
2023-03-27T09:18:49.573Z,84.96
2023-03-27T09:21:28.361Z,86.79
2023-03-27T09:23:56.041Z,88.28
2023-03-27T09:27:06.786Z,89.48
2023-03-27T09:30:08.398Z,89.53
2023-03-27T09:32:43.862Z,89.72
2023-03-27T09:35:17.005Z,90.37
2023-03-27T09:37:46.967Z,90.66
2023-03-27T09:40:23.601Z,90.29
2023-03-27T09:42:56.000Z,90.30
2023-03-27T09:45:25.658Z,90.34
2023-03-27T09:48:02.734Z,90.34
2023-03-27T09:50:47.273Z,90.31
2023-03-27T09:53:28.066Z,90.26
2023-03-27T09:56:17.520Z,90.45
2023-03-27T09:58:49.403Z,89.86
2023-03-27T10:01:21.690Z,90.21
2023-03-27T10:03:53.661Z,90.69
2023-03-27T10:06:43.934Z,90.48
2023-03-27T10:09:23.411Z,89.54
2023-03-27T10:11:59.679Z,89.04
2023-03-27T10:14:29.265Z,89.64
2023-03-27T10:16:59.476Z,89.71
2023-03-27T10:19:27.982Z,89.94
2023-03-27T10:22:02.096Z,89.10
2023-03-27T10:24:36.034Z,90.07
2023-03-27T10:27:32.419Z,90.22
2023-03-27T10:30:27.575Z,89.86
2023-03-27T10:33:07.483Z,89.68
2023-03-27T10:35:47.909Z,90.29
2023-03-27T10:38:25.269Z,89.96
2023-03-27T10:41:28.316Z,90.26
2023-03-27T10:43:59.869Z,91.03
2023-03-27T10:46:27.114Z,91.05
2023-03-27T10:49:00.988Z,90.15
2023-03-27T10:51:39.522Z,90.67
2023-03-27T10:54:16.242Z,90.16
2023-03-27T10:56:53.706Z,90.37
2023-03-27T10:59:34.519Z,91.07
2023-03-27T11:02:13.118Z,90.96
2023-03-27T11:04:42.951Z,91.02
2023-03-27T11:07:14.345Z,91.36
2023-03-27T11:09:52.238Z,91.83
2023-03-27T11:12:18.817Z,90.04
2023-03-27T11:15:02.888Z,91.58
2023-03-27T11:17:36.587Z,91.24
2023-03-27T11:20:33.681Z,91.57
2023-03-27T11:23:40.149Z,91.88
2023-03-27T11:26:23.135Z,91.79
2023-03-27T11:29:04.731Z,91.80
2023-03-27T11:31:46.406Z,92.40
2023-03-27T11:34:30.094Z,91.70
2023-03-27T11:37:20.203Z,91.66
2023-03-27T11:39:53.204Z,91.21
2023-03-27T11:42:24.054Z,91.81
2023-03-27T11:44:51.756Z,91.86
2023-03-27T11:47:37.120Z,92.49
2023-03-27T11:50:16.699Z,91.86
2023-03-27T11:52:43.617Z,92.31
2023-03-27T11:55:13.561Z,91.61
2023-03-27T11:58:04.334Z,89.90
2023-03-27T12:00:46.150Z,90.62
2023-03-27T12:03:17.386Z,90.72
2023-03-27T12:05:45.478Z,91.07
2023-03-27T12:08:16.777Z,90.49
2023-03-27T12:10:46.275Z,89.34
2023-03-27T12:13:34.980Z,89.76
2023-03-27T12:16:11.046Z,87.32
2023-03-27T12:19:02.113Z,84.88
2023-03-27T12:21:44.916Z,82.80
2023-03-27T12:24:22.128Z,81.79
2023-03-27T12:27:06.744Z,78.75
2023-03-27T12:29:57.351Z,80.02
2023-03-27T12:32:45.799Z,77.46
2023-03-27T12:35:12.446Z,76.29
2023-03-27T12:37:45.187Z,72.33
2023-03-27T12:40:27.539Z,70.37
2023-03-27T12:43:09.234Z,70.10
2023-03-27T12:45:44.144Z,69.04
2023-03-27T12:48:19.805Z,68.93
2023-03-27T12:50:50.956Z,66.82
2023-03-27T12:53:39.502Z,66.72
2023-03-27T12:56:09.809Z,67.58
2023-03-27T12:58:38.908Z,66.91
2023-03-27T13:01:36.318Z,66.01
2023-03-27T13:04:20.990Z,65.75
2023-03-27T13:06:52.832Z,65.57
2023-03-27T13:09:25.174Z,64.94
2023-03-27T13:12:20.210Z,63.45
2023-03-27T13:14:50.274Z,64.15
2023-03-27T13:17:29.734Z,63.55
2023-03-27T13:19:56.948Z,63.33
2023-03-27T13:22:49.626Z,61.88
2023-03-27T13:25:30.770Z,62.63
2023-03-27T13:28:16.248Z,62.60
2023-03-27T13:30:57.299Z,63.51
2023-03-27T13:34:15.415Z,63.70
2023-03-27T13:36:49.159Z,63.44
2023-03-27T13:39:22.214Z,62.37
2023-03-27T13:41:54.182Z,62.89
2023-03-27T13:44:37.036Z,62.56
2023-03-27T13:47:13.007Z,63.13
2023-03-27T13:49:49.524Z,62.76
2023-03-27T13:52:33.438Z,62.99
2023-03-27T13:55:21.689Z,63.07
2023-03-27T13:58:35.866Z,62.37
2023-03-27T14:01:07.892Z,61.11
2023-03-27T14:03:50.010Z,61.84
2023-03-27T14:06:23.015Z,62.36
2023-03-27T14:09:05.994Z,62.42
2023-03-27T14:12:11.276Z,63.26
2023-03-27T14:15:10.014Z,62.65
2023-03-27T14:17:58.886Z,63.50
2023-03-27T14:20:27.380Z,63.33
2023-03-27T14:22:57.025Z,61.99
2023-03-27T14:25:34.052Z,62.22
2023-03-27T14:28:34.955Z,62.40
2023-03-27T14:31:06.386Z,62.33
2023-03-27T14:33:53.949Z,62.63
2023-03-27T14:36:31.003Z,61.57
2023-03-27T14:39:18.982Z,60.78
2023-03-27T14:41:53.110Z,59.61
2023-03-27T14:44:20.346Z,59.99
2023-03-27T14:46:51.042Z,58.67
2023-03-27T14:49:24.557Z,56.30
2023-03-27T14:52:05.016Z,56.78
2023-03-27T14:54:55.607Z,55.87
2023-03-27T14:57:28.741Z,55.67
2023-03-27T15:00:01.166Z,55.04
2023-03-27T15:02:30.674Z,56.37
2023-03-27T15:05:12.004Z,55.45
2023-03-27T15:07:49.061Z,55.21
2023-03-27T15:10:49.556Z,56.63
2023-03-27T15:13:35.661Z,55.32
2023-03-27T15:16:06.630Z,55.48
2023-03-27T15:18:50.903Z,55.06
2023-03-27T15:21:20.081Z,56.74
2023-03-27T15:24:00.954Z,54.76
2023-03-27T15:26:31.887Z,55.60
2023-03-27T15:29:04.131Z,55.04
2023-03-27T15:31:31.147Z,55.36
2023-03-27T15:34:02.435Z,55.97
2023-03-27T15:36:30.259Z,55.26
2023-03-27T15:39:02.648Z,54.64
2023-03-27T15:41:33.474Z,55.01
2023-03-27T15:44:03.671Z,54.93
2023-03-27T15:46:49.452Z,54.81
2023-03-27T15:49:21.469Z,54.71
2023-03-27T15:51:48.569Z,54.74
2023-03-27T15:54:25.759Z,54.61
2023-03-27T15:57:10.555Z,55.27
2023-03-27T15:59:37.735Z,53.77
2023-03-27T16:02:21.889Z,54.47
2023-03-27T16:04:55.643Z,53.81
2023-03-27T16:07:22.747Z,53.53
2023-03-27T16:09:49.578Z,52.85
2023-03-27T16:12:19.191Z,54.22
2023-03-27T16:14:49.329Z,53.56
2023-03-27T16:17:25.337Z,53.28
2023-03-27T16:19:58.276Z,54.29
2023-03-27T16:22:26.393Z,53.13
2023-03-27T16:24:53.331Z,51.55
2023-03-27T16:27:23.010Z,51.60
2023-03-27T16:29:52.639Z,51.93
2023-03-27T16:32:21.954Z,51.60
2023-03-27T16:34:51.714Z,52.57
2023-03-27T16:37:22.206Z,51.69
2023-03-27T16:39:54.234Z,51.70
2023-03-27T16:42:25.859Z,52.03
2023-03-27T16:44:55.403Z,52.41
2023-03-27T16:47:23.463Z,52.69
2023-03-27T16:50:08.004Z,51.89
2023-03-27T16:52:37.753Z,51.69
2023-03-27T16:55:07.689Z,50.69
2023-03-27T16:57:36.456Z,51.81
2023-03-27T17:00:05.447Z,51.67
2023-03-27T17:02:36.480Z,51.51
2023-03-27T17:05:07.844Z,51.70
2023-03-27T17:07:34.789Z,51.30
2023-03-27T17:10:04.247Z,50.93
2023-03-27T17:12:31.237Z,50.62
2023-03-27T17:14:58.086Z,51.13
2023-03-27T17:17:25.263Z,51.53
2023-03-27T17:19:54.310Z,50.99
2023-03-27T17:22:21.606Z,50.67
2023-03-27T17:24:56.063Z,50.38
2023-03-27T17:27:24.189Z,49.91
2023-03-27T17:29:53.104Z,51.63
2023-03-27T17:32:19.884Z,50.75
2023-03-27T17:34:46.623Z,49.63
2023-03-27T17:37:13.292Z,50.60
2023-03-27T17:39:42.608Z,50.35
2023-03-27T17:42:12.033Z,48.89
2023-03-27T17:44:41.553Z,49.63
2023-03-27T17:47:08.579Z,49.66
2023-03-27T17:49:37.710Z,49.33
2023-03-27T17:52:08.326Z,48.69
2023-03-27T17:54:37.404Z,50.11
2023-03-27T17:57:06.531Z,48.83
2023-03-27T17:59:33.389Z,49.20
2023-03-27T18:02:00.220Z,50.13
2023-03-27T18:04:27.199Z,49.87
2023-03-27T18:06:54.050Z,49.88
2023-03-27T18:09:25.440Z,48.65
2023-03-27T18:11:52.422Z,49.20
2023-03-27T18:14:19.031Z,49.32
2023-03-27T18:16:45.978Z,48.42
2023-03-27T18:19:16.883Z,49.78
2023-03-27T18:21:46.335Z,49.34
2023-03-27T18:24:12.959Z,48.88
2023-03-27T18:26:39.764Z,49.58
2023-03-27T18:29:06.863Z,49.90
2023-03-27T18:31:36.517Z,48.37
2023-03-27T18:34:03.289Z,49.22
2023-03-27T18:36:34.722Z,48.44
2023-03-27T18:39:07.376Z,48.14
2023-03-27T18:41:35.851Z,48.09
2023-03-27T18:44:02.437Z,48.16
2023-03-27T18:46:29.200Z,48.38
2023-03-27T18:48:55.888Z,48.89
2023-03-27T18:51:24.828Z,48.55
2023-03-27T18:53:51.536Z,48.97
2023-03-27T18:56:18.706Z,48.81
2023-03-27T18:58:48.378Z,48.55
2023-03-27T19:01:15.287Z,49.05
2023-03-27T19:03:44.786Z,47.59
2023-03-27T19:06:11.875Z,47.92
2023-03-27T19:08:43.402Z,47.76
2023-03-27T19:11:12.416Z,47.81
2023-03-27T19:13:59.402Z,47.37
2023-03-27T19:16:32.526Z,47.89
2023-03-27T19:19:14.448Z,47.58
2023-03-27T19:22:08.475Z,47.48
2023-03-27T19:24:58.290Z,47.85
2023-03-27T19:27:25.795Z,47.31
2023-03-27T19:29:55.646Z,47.18
2023-03-27T19:32:24.191Z,47.79
2023-03-27T19:34:55.980Z,48.65
2023-03-27T19:37:22.688Z,49.35
2023-03-27T19:39:54.191Z,48.01
2023-03-27T19:42:23.364Z,48.37
2023-03-27T19:44:52.430Z,48.24
2023-03-27T19:47:19.086Z,48.29
2023-03-27T19:49:49.087Z,47.36
2023-03-27T19:52:22.101Z,47.54
2023-03-27T19:54:48.894Z,48.16
2023-03-27T19:57:20.820Z,47.75
2023-03-27T19:59:50.063Z,47.72
2023-03-27T20:02:16.741Z,47.18
2023-03-27T20:04:43.449Z,47.36
2023-03-27T20:07:10.223Z,46.86
2023-03-27T20:09:39.423Z,46.37
2023-03-27T20:12:11.301Z,48.05
2023-03-27T20:14:44.852Z,47.19
2023-03-27T20:17:27.595Z,46.24
2023-03-27T20:19:57.492Z,46.19
2023-03-27T20:22:24.174Z,45.87
2023-03-27T20:24:51.216Z,46.84
2023-03-27T20:27:19.909Z,46.70
2023-03-27T20:29:47.330Z,45.90
2023-03-27T20:32:16.514Z,46.12
2023-03-27T20:34:43.258Z,45.60
2023-03-27T20:37:12.870Z,46.32
2023-03-27T20:39:54.989Z,46.41
2023-03-27T20:42:26.241Z,46.22
2023-03-27T20:44:58.498Z,45.40
2023-03-27T20:47:39.022Z,45.30
2023-03-27T20:50:06.248Z,45.85
2023-03-27T20:52:32.925Z,46.40
2023-03-27T20:55:01.408Z,45.05
2023-03-27T20:57:30.968Z,44.74
2023-03-27T20:59:57.520Z,45.65
2023-03-27T21:02:29.604Z,45.68
2023-03-27T21:04:59.153Z,46.80
2023-03-27T21:07:25.955Z,46.08
2023-03-27T21:09:53.323Z,46.72
2023-03-27T21:12:20.020Z,46.65
2023-03-27T21:14:46.837Z,46.19
2023-03-27T21:17:13.417Z,46.79
2023-03-27T21:19:40.042Z,47.08
2023-03-27T21:22:09.665Z,45.32
2023-03-27T21:24:36.303Z,46.51
2023-03-27T21:27:03.266Z,47.30
2023-03-27T21:29:30.264Z,47.12
2023-03-27T21:31:57.042Z,45.81
2023-03-27T21:34:26.933Z,46.66
2023-03-27T21:36:53.583Z,47.08
2023-03-27T21:39:22.655Z,46.07
2023-03-27T21:41:49.689Z,46.42
2023-03-27T21:44:16.370Z,47.33
2023-03-27T21:46:42.947Z,46.16
2023-03-27T21:49:09.549Z,46.44
2023-03-27T21:51:38.964Z,46.95
2023-03-27T21:54:05.617Z,46.98
2023-03-27T21:56:34.682Z,46.49
2023-03-27T21:59:01.290Z,46.97
2023-03-27T22:01:30.304Z,47.09
2023-03-27T22:04:02.316Z,47.07
2023-03-27T22:06:29.132Z,46.63
2023-03-27T22:08:56.250Z,47.81
2023-03-27T22:11:25.307Z,47.08
2023-03-27T22:13:52.229Z,46.39
2023-03-27T22:16:23.939Z,47.50
2023-03-27T22:18:50.648Z,46.43
2023-03-27T22:21:18.700Z,46.39
2023-03-27T22:23:50.859Z,45.89
2023-03-27T22:26:18.432Z,45.38
2023-03-27T22:28:47.394Z,45.72
2023-03-27T22:31:14.072Z,45.79
2023-03-27T22:33:41.185Z,45.41
2023-03-27T22:36:11.773Z,45.61
2023-03-27T22:38:41.514Z,46.54
2023-03-27T22:41:09.170Z,46.41
2023-03-27T22:43:38.460Z,45.50
2023-03-27T22:46:10.579Z,46.25
2023-03-27T22:48:39.618Z,47.18
2023-03-27T22:51:06.560Z,45.88
2023-03-27T22:53:33.217Z,46.54
2023-03-27T22:56:00.306Z,46.54
2023-03-27T22:58:27.588Z,46.94
2023-03-27T23:00:54.295Z,45.68
2023-03-27T23:03:24.050Z,46.22
2023-03-27T23:05:50.802Z,45.43
2023-03-27T23:08:18.153Z,46.87
2023-03-27T23:10:45.453Z,46.17
2023-03-27T23:13:14.628Z,45.35
2023-03-27T23:15:41.275Z,45.32
2023-03-27T23:18:07.925Z,46.38
2023-03-27T23:20:34.573Z,45.42
2023-03-27T23:23:01.367Z,45.54
2023-03-27T23:25:28.270Z,46.76
2023-03-27T23:27:55.076Z,46.58
2023-03-27T23:30:24.119Z,46.91
2023-03-27T23:32:50.814Z,47.19
2023-03-27T23:35:17.649Z,47.25
2023-03-27T23:37:47.774Z,47.90
2023-03-27T23:40:14.339Z,47.90
2023-03-27T23:42:45.682Z,47.81
2023-03-27T23:45:14.669Z,47.96
2023-03-27T23:47:43.466Z,47.71
2023-03-27T23:50:12.993Z,49.07
2023-03-27T23:52:41.955Z,49.25
2023-03-27T23:55:08.852Z,48.23
2023-03-27T23:57:35.576Z,48.87
